RPSB weather

Bantayan Airport
Cebu Province, Philippines

Public forecast

Using degrees Celsius for public forecast. Weather courtesy of forecast.io.

METAR (pilot weather report)

Closest report is Mactan Cebu International Airport, 52.6 nm (97.4 km) SSE. Retrieved 2019/06/24 21:00 UTC (13 minutes ago):

RPVM 242100Z VRB02KT 9999 FEW020 OVC250 26/23 Q1010 NOSIG RMK A2983

TAF (pilot weather forecast)

Closest forecast is Mactan Cebu International Airport, 52.6 nm (97.4 km) SSE. Retrieved 2019/06/24 18:00 UTC (3 hours ago):

TAF RPVM 241700Z 2418/2524 24006KT 9999 FEW020 BKN100 TEMPO 2418/2424 25004KT 9000 -TSRA FEW018CB FEW020 BKN090 TEMPO 2500/2506 23007KT FEW018CB SCT100